Waf_motion — 4RBK — position and weather

sailwx.info

Track history (hours):
 
Tides and Currents Weather Stations Pressure Air Temp Water Temp Dewpoint Dewpoint Depression Visibility Wind Speed Wind Dir Waves Ship Positions

Waf_motion

Last reported at 2017-Jul-02 22:05 UTC. Time now 2017-Aug-19 16:57 UTC.
Position S 32°38' W 072°25'.
Warning: this ship's position is 47 days out of date.

Length 140 m; draft 6.2 m.

Type: Cargo ship. MMSI: 417222324.

Date/timePositionNaut miles runAvg speedWind from/ knotsBaromVisibWave heightAir tempDewpointWater temp
2017-Jul-02 22:05S 32°38' W 072°25'114.1
2017-Jul-02 22:01S 32°39' W 072°25'714.1
2017-Jul-02 21:30S 32°46' W 072°27'814.0
2017-Jul-02 20:57S 32°54' W 072°29'713.9
2017-Jul-02 20:29S 33°00' W 072°30'1114.2
2017-Jul-02 19:44S 33°11' W 072°33'  
2017-Jun-30 03:07S 33°01' W 071°44'113.5
2017-Jun-30 03:00S 33°01' W 071°42'4 0.1
2017-Jun-28 09:47S 33°02' W 071°38'0 0.0
2017-Jun-28 00:18S 33°02' W 071°37'3 4.4
2017-Jun-27 23:34S 32°59' W 071°38'0 5.3
2017-Jun-27 23:30S 32°59' W 071°38'3 5.2
2017-Jun-27 23:01S 32°56' W 071°39'510.2
2017-Jun-27 22:30S 32°52' W 071°43'713.1
2017-Jun-27 22:00S 32°47' W 071°48'510.7
2017-Jun-27 21:31S 32°44' W 071°43'  
Track history (hours):
 
Tides and Currents Weather Stations Pressure Air Temp Water Temp Dewpoint Dewpoint Depression Visibility Wind Speed Wind Dir Waves Ship Positions

Waf_motion

Last reported at 2017-Jul-02 22:05 UTC. Time now 2017-Aug-19 16:57 UTC.
Position S 32°38' W 072°25'.
Warning: this ship's position is 47 days out of date.

Length 140 m; draft 6.2 m.

Type: Cargo ship. MMSI: 417222324.

Date/timePositionNaut miles runAvg speedWind from/ knotsBaromVisibWave heightAir tempDewpointWater temp
2017-Jul-02 22:05S 32°38' W 072°25'114.1
2017-Jul-02 22:01S 32°39' W 072°25'714.1
2017-Jul-02 21:30S 32°46' W 072°27'814.0
2017-Jul-02 20:57S 32°54' W 072°29'713.9
2017-Jul-02 20:29S 33°00' W 072°30'1114.2
2017-Jul-02 19:44S 33°11' W 072°33'  
2017-Jun-30 03:07S 33°01' W 071°44'113.5
2017-Jun-30 03:00S 33°01' W 071°42'4 0.1
2017-Jun-28 09:47S 33°02' W 071°38'0 0.0
2017-Jun-28 00:18S 33°02' W 071°37'3 4.4
2017-Jun-27 23:34S 32°59' W 071°38'0 5.3
2017-Jun-27 23:30S 32°59' W 071°38'3 5.2
2017-Jun-27 23:01S 32°56' W 071°39'510.2
2017-Jun-27 22:30S 32°52' W 071°43'713.1
2017-Jun-27 22:00S 32°47' W 071°48'510.7
2017-Jun-27 21:31S 32°44' W 071°43'  

Dump ship's entire track history